createdAt,value
2023-01-17T00:02:19.469Z,1.54
2023-01-17T00:05:07.326Z,1.62
2023-01-17T00:07:52.585Z,1.63
2023-01-17T00:10:21.908Z,1.68
2023-01-17T00:12:54.062Z,1.71
2023-01-17T00:15:23.342Z,1.73
2023-01-17T00:17:53.451Z,1.73
2023-01-17T00:20:41.591Z,1.72
2023-01-17T00:23:36.979Z,1.78
2023-01-17T00:26:25.020Z,1.80
2023-01-17T00:28:53.807Z,1.81
2023-01-17T00:31:22.852Z,1.82
2023-01-17T00:33:49.380Z,1.81
2023-01-17T00:36:15.857Z,1.79
2023-01-17T00:38:42.403Z,1.80
2023-01-17T00:41:11.599Z,1.82
2023-01-17T00:43:57.131Z,1.80
2023-01-17T00:46:45.082Z,1.82
2023-01-17T00:49:32.615Z,1.79
2023-01-17T00:52:18.039Z,1.83
2023-01-17T00:55:05.735Z,1.83
2023-01-17T00:57:50.617Z,1.83
2023-01-17T01:00:38.939Z,1.82
2023-01-17T01:03:28.798Z,1.77
2023-01-17T01:06:13.892Z,1.79
2023-01-17T01:08:58.615Z,1.78
2023-01-17T01:11:43.838Z,1.77
2023-01-17T01:14:29.216Z,1.77
2023-01-17T01:17:13.962Z,1.77
2023-01-17T01:20:01.216Z,1.62
2023-01-17T01:22:48.612Z,1.50
2023-01-17T01:25:34.024Z,1.56
2023-01-17T01:28:26.038Z,1.55
2023-01-17T01:31:13.340Z,1.17
2023-01-17T01:33:39.946Z,1.19
2023-01-17T01:36:08.886Z,1.27
2023-01-17T01:38:35.631Z,1.26
2023-01-17T01:41:02.726Z,1.29
2023-01-17T01:43:44.452Z,1.14
2023-01-17T01:46:31.233Z,1.06
2023-01-17T01:49:04.761Z,1.23
2023-01-17T01:51:48.186Z,1.24
2023-01-17T01:54:20.724Z,1.15
2023-01-17T01:56:48.961Z,1.09
2023-01-17T01:59:22.365Z,0.95
2023-01-17T02:01:55.883Z,0.94
2023-01-17T02:04:27.896Z,0.95
2023-01-17T02:07:02.668Z,0.81
2023-01-17T02:09:29.235Z,0.91
2023-01-17T02:12:01.275Z,0.94
2023-01-17T02:14:30.271Z,0.94
2023-01-17T02:17:12.730Z,1.02
2023-01-17T02:20:11.590Z,1.01
2023-01-17T02:23:05.490Z,1.15
2023-01-17T02:25:59.619Z,1.14
2023-01-17T02:28:46.467Z,1.19
2023-01-17T02:31:25.695Z,1.12
2023-01-17T02:34:06.730Z,1.09
2023-01-17T02:36:37.990Z,1.16
2023-01-17T02:39:22.117Z,1.17
2023-01-17T02:42:00.991Z,1.10
2023-01-17T02:44:27.507Z,1.15
2023-01-17T02:46:56.703Z,0.95
2023-01-17T02:49:30.376Z,0.96
2023-01-17T02:52:37.010Z,1.01
2023-01-17T02:55:05.876Z,1.00
2023-01-17T02:57:52.236Z,0.88
2023-01-17T03:00:23.774Z,0.84
2023-01-17T03:02:53.342Z,0.81
2023-01-17T03:05:43.543Z,0.80
2023-01-17T03:08:13.387Z,0.71
2023-01-17T03:10:43.811Z,0.60
2023-01-17T03:13:10.459Z,0.64
2023-01-17T03:15:42.381Z,0.60
2023-01-17T03:18:14.111Z,0.55
2023-01-17T03:20:43.840Z,0.51
2023-01-17T03:23:13.623Z,0.44
2023-01-17T03:25:40.161Z,0.42
2023-01-17T03:28:06.751Z,0.40
2023-01-17T03:30:33.355Z,0.28
2023-01-17T03:33:02.169Z,0.30
2023-01-17T03:35:28.738Z,0.22
2023-01-17T03:37:56.512Z,0.12
2023-01-17T03:40:28.069Z,0.16
2023-01-17T03:42:54.597Z,0.12
2023-01-17T03:45:23.389Z,0.12
2023-01-17T03:47:49.904Z,0.12
2023-01-17T03:50:16.540Z,0.09
2023-01-17T03:52:43.109Z,0.07
2023-01-17T03:55:10.048Z,0.07
2023-01-17T03:57:36.632Z,0.14
2023-01-17T04:00:03.938Z,0.13
2023-01-17T04:02:30.525Z,0.10
2023-01-17T04:04:59.600Z,0.06
2023-01-17T04:07:28.452Z,0.04
2023-01-17T04:09:57.101Z,-0.06
2023-01-17T04:12:26.182Z,-0.12
2023-01-17T04:14:54.990Z,-0.25
2023-01-17T04:17:22.709Z,-0.56
2023-01-17T04:19:49.348Z,-0.37
2023-01-17T04:22:15.908Z,-0.27
2023-01-17T04:24:44.683Z,-0.23
2023-01-17T04:27:16.150Z,-0.27
2023-01-17T04:29:47.637Z,-0.25
2023-01-17T04:32:14.876Z,-0.14
2023-01-17T04:34:43.650Z,-0.13
2023-01-17T04:37:10.355Z,-0.15
2023-01-17T04:39:36.914Z,-0.19
2023-01-17T04:42:03.563Z,-0.19
2023-01-17T04:44:30.134Z,-0.30
2023-01-17T04:46:56.702Z,-0.29
2023-01-17T04:49:23.327Z,-0.28
2023-01-17T04:51:49.900Z,-0.30
2023-01-17T04:54:16.592Z,-0.27
2023-01-17T04:56:44.246Z,-0.14
2023-01-17T04:59:10.875Z,-0.05
2023-01-17T05:01:37.676Z,-0.16
2023-01-17T05:04:04.505Z,-0.25
2023-01-17T05:06:33.280Z,-0.23
2023-01-17T05:08:59.883Z,-0.51
2023-01-17T05:11:26.435Z,-0.52
2023-01-17T05:13:57.812Z,-0.43
2023-01-17T05:16:24.606Z,-0.34
2023-01-17T05:18:54.029Z,-0.32
2023-01-17T05:21:24.078Z,-0.73
2023-01-17T05:23:52.834Z,-0.61
2023-01-17T05:26:21.749Z,-0.58
2023-01-17T05:28:48.329Z,-0.63
2023-01-17T05:31:14.916Z,-0.64
2023-01-17T05:33:44.017Z,-0.77
2023-01-17T05:36:13.045Z,-0.64
2023-01-17T05:38:39.779Z,-0.76
2023-01-17T05:41:08.784Z,-0.68
2023-01-17T05:43:38.553Z,-0.66
2023-01-17T05:46:05.289Z,-0.63
2023-01-17T05:48:36.614Z,-0.66
2023-01-17T05:51:05.528Z,-0.56
2023-01-17T05:53:32.345Z,-0.58
2023-01-17T05:56:01.128Z,-0.47
2023-01-17T05:58:29.985Z,-0.34
2023-01-17T06:00:59.057Z,-0.79
2023-01-17T06:03:28.294Z,-0.75
2023-01-17T06:05:54.914Z,-0.85
2023-01-17T06:08:23.695Z,-1.00
2023-01-17T06:10:52.767Z,-1.11
2023-01-17T06:13:22.093Z,-1.31
2023-01-17T06:15:49.122Z,-1.15
2023-01-17T06:18:17.748Z,-0.96
2023-01-17T06:20:45.214Z,-0.95
2023-01-17T06:23:14.323Z,-0.86
2023-01-17T06:25:46.190Z,-0.90
2023-01-17T06:28:17.081Z,-0.71
2023-01-17T06:30:44.075Z,-0.68
2023-01-17T06:33:13.619Z,-0.61
2023-01-17T06:35:46.888Z,-0.56
2023-01-17T06:38:13.646Z,-0.66
2023-01-17T06:40:42.426Z,-0.66
2023-01-17T06:43:09.056Z,-0.91
2023-01-17T06:45:38.130Z,-0.80
2023-01-17T06:48:05.872Z,-0.89
2023-01-17T06:50:35.285Z,-0.73
2023-01-17T06:53:06.753Z,-0.72
2023-01-17T06:55:34.818Z,-0.75
2023-01-17T06:58:02.891Z,-0.69
2023-01-17T07:00:35.172Z,-0.75
2023-01-17T07:03:02.109Z,-0.74
2023-01-17T07:05:32.876Z,-0.94
2023-01-17T07:07:59.538Z,-0.78
2023-01-17T07:10:28.615Z,-0.68
2023-01-17T07:12:59.765Z,-0.61
2023-01-17T07:15:31.155Z,-0.56
2023-01-17T07:18:01.207Z,-0.51
2023-01-17T07:20:27.865Z,-0.48
2023-01-17T07:22:54.455Z,-0.51
2023-01-17T07:25:23.372Z,-0.46
2023-01-17T07:27:53.577Z,-0.43
2023-01-17T07:30:22.674Z,-0.73
2023-01-17T07:32:55.250Z,-0.74
2023-01-17T07:35:23.196Z,-0.82
2023-01-17T07:37:50.718Z,-1.03
2023-01-17T07:40:21.265Z,-0.99
2023-01-17T07:42:48.365Z,-0.70
2023-01-17T07:45:16.328Z,-0.52
2023-01-17T07:47:42.893Z,-0.43
2023-01-17T07:50:10.219Z,-0.43
2023-01-17T07:52:36.744Z,-0.36
2023-01-17T07:55:03.509Z,-0.41
2023-01-17T07:57:34.589Z,-0.36
2023-01-17T08:00:01.229Z,-0.64
2023-01-17T08:02:27.797Z,-0.66
2023-01-17T08:04:54.329Z,-0.44
2023-01-17T08:07:23.311Z,-0.38
2023-01-17T08:09:50.464Z,-0.44
2023-01-17T08:12:17.600Z,-0.26
2023-01-17T08:14:46.900Z,-0.13
2023-01-17T08:17:21.811Z,-0.08
2023-01-17T08:19:52.244Z,-0.09
2023-01-17T08:22:19.582Z,-0.03
2023-01-17T08:24:46.138Z,-0.37
2023-01-17T08:27:17.160Z,-0.27
2023-01-17T08:29:48.385Z,-0.24
2023-01-17T08:32:21.370Z,-0.43
2023-01-17T08:34:47.917Z,-0.33
2023-01-17T08:37:16.645Z,-0.40
2023-01-17T08:39:45.657Z,-0.50
2023-01-17T08:42:12.202Z,-0.34
2023-01-17T08:44:39.790Z,-0.17
2023-01-17T08:47:06.421Z,-0.41
2023-01-17T08:49:33.001Z,-0.23
2023-01-17T08:52:01.769Z,-0.16
2023-01-17T08:54:28.997Z,-0.10
2023-01-17T08:56:57.843Z,0.07
2023-01-17T08:59:24.461Z,0.02
2023-01-17T09:01:52.600Z,0.00
2023-01-17T09:04:21.885Z,0.02
2023-01-17T09:06:48.917Z,0.24
2023-01-17T09:09:16.937Z,0.22
2023-01-17T09:11:43.502Z,0.36
2023-01-17T09:14:12.679Z,0.32
2023-01-17T09:16:42.257Z,0.20
2023-01-17T09:19:11.113Z,0.28
2023-01-17T09:21:37.647Z,0.42
2023-01-17T09:24:04.253Z,0.40
2023-01-17T09:26:31.159Z,0.52
2023-01-17T09:29:00.137Z,0.46
2023-01-17T09:31:28.963Z,0.72
2023-01-17T09:33:57.176Z,0.49
2023-01-17T09:36:24.465Z,0.66
2023-01-17T09:38:56.808Z,0.78
2023-01-17T09:41:29.080Z,0.74
2023-01-17T09:44:02.768Z,0.60
2023-01-17T09:46:32.280Z,0.89
2023-01-17T09:49:09.544Z,1.00
2023-01-17T09:51:36.920Z,1.05
2023-01-17T09:54:03.740Z,0.90
2023-01-17T09:56:46.783Z,1.00
2023-01-17T09:59:19.400Z,0.93
2023-01-17T10:02:10.718Z,0.84
2023-01-17T10:05:16.262Z,0.95
2023-01-17T10:07:42.835Z,0.99
2023-01-17T10:10:30.704Z,1.17
2023-01-17T10:13:15.304Z,1.23
2023-01-17T10:16:00.817Z,0.94
2023-01-17T10:18:30.760Z,1.00
2023-01-17T10:21:06.269Z,1.07
2023-01-17T10:23:46.936Z,1.09
2023-01-17T10:26:22.261Z,1.41
2023-01-17T10:28:51.651Z,1.58
2023-01-17T10:31:29.950Z,1.59
2023-01-17T10:34:25.404Z,1.59
2023-01-17T10:37:04.097Z,1.41
2023-01-17T10:39:31.237Z,1.38
2023-01-17T10:42:03.408Z,1.50
2023-01-17T10:44:43.451Z,1.39
2023-01-17T10:47:09.919Z,1.40
2023-01-17T10:49:44.101Z,1.50
2023-01-17T10:52:29.556Z,1.69
2023-01-17T10:55:30.271Z,1.67
2023-01-17T10:57:58.185Z,1.36
2023-01-17T11:00:46.747Z,1.50
2023-01-17T11:03:17.794Z,1.51
2023-01-17T11:06:04.363Z,1.46
2023-01-17T11:08:53.519Z,1.32
2023-01-17T11:11:24.831Z,1.44
2023-01-17T11:13:54.632Z,1.56
2023-01-17T11:16:27.434Z,1.70
2023-01-17T11:19:18.416Z,1.47
2023-01-17T11:21:56.138Z,1.67
2023-01-17T11:24:40.658Z,1.69
2023-01-17T11:27:23.456Z,1.67
2023-01-17T11:30:15.859Z,1.66
2023-01-17T11:32:57.656Z,1.70
2023-01-17T11:35:44.384Z,1.80
2023-01-17T11:38:19.027Z,1.62
2023-01-17T11:40:48.000Z,1.58
2023-01-17T11:43:30.269Z,1.51
2023-01-17T11:46:17.951Z,1.45
2023-01-17T11:48:51.283Z,1.45
2023-01-17T11:51:33.137Z,1.60
2023-01-17T11:54:25.895Z,1.34
2023-01-17T11:57:04.516Z,1.46
2023-01-17T11:59:35.221Z,1.52
2023-01-17T12:02:23.995Z,1.56
2023-01-17T12:05:02.516Z,1.66
2023-01-17T12:07:38.013Z,1.79
2023-01-17T12:10:26.091Z,1.71
2023-01-17T12:13:32.795Z,1.64
2023-01-17T12:16:27.406Z,1.75
2023-01-17T12:19:05.790Z,1.77
2023-01-17T12:22:08.801Z,1.65
2023-01-17T12:24:45.331Z,1.58
2023-01-17T12:27:37.978Z,1.53
2023-01-17T12:30:39.525Z,1.48
2023-01-17T12:33:27.248Z,1.45
2023-01-17T12:35:58.539Z,1.41
2023-01-17T12:38:41.351Z,1.48
2023-01-17T12:41:23.003Z,1.43
2023-01-17T12:43:54.084Z,1.51
2023-01-17T12:46:28.480Z,1.47
2023-01-17T12:49:02.907Z,1.48
2023-01-17T12:51:39.201Z,1.53
2023-01-17T12:54:20.082Z,1.51
2023-01-17T12:56:52.520Z,1.45
2023-01-17T12:59:32.707Z,1.53
2023-01-17T13:02:10.943Z,1.43
2023-01-17T13:04:58.362Z,1.18
2023-01-17T13:07:48.566Z,1.16
2023-01-17T13:10:18.012Z,1.16
2023-01-17T13:12:48.962Z,0.98
2023-01-17T13:15:23.385Z,1.02
2023-01-17T13:17:56.488Z,0.93
2023-01-17T13:20:26.830Z,0.81
2023-01-17T13:22:59.439Z,0.84
2023-01-17T13:25:31.953Z,0.82
2023-01-17T13:28:00.769Z,0.73
2023-01-17T13:30:50.605Z,0.76
2023-01-17T13:33:40.935Z,0.67
2023-01-17T13:36:20.159Z,0.74
2023-01-17T13:39:13.683Z,0.68
2023-01-17T13:41:45.562Z,0.77
2023-01-17T13:44:24.394Z,0.53
2023-01-17T13:47:01.286Z,0.56
2023-01-17T13:49:34.135Z,0.57
2023-01-17T13:52:03.466Z,0.45
2023-01-17T13:54:42.295Z,0.40
2023-01-17T13:57:29.571Z,0.58
2023-01-17T14:00:00.683Z,0.48
2023-01-17T14:02:35.865Z,0.54
2023-01-17T14:05:21.369Z,0.51
2023-01-17T14:07:49.656Z,0.41
2023-01-17T14:10:38.235Z,0.49
2023-01-17T14:13:24.483Z,0.40
2023-01-17T14:15:55.572Z,0.41
2023-01-17T14:18:55.420Z,0.55
2023-01-17T14:21:25.965Z,0.65
2023-01-17T14:24:04.135Z,0.87
2023-01-17T14:26:43.215Z,1.14
2023-01-17T14:29:47.287Z,1.17
2023-01-17T14:32:22.110Z,0.88
2023-01-17T14:34:52.044Z,0.64
2023-01-17T14:37:29.600Z,0.74
2023-01-17T14:40:01.946Z,0.76
2023-01-17T14:42:33.506Z,0.61
2023-01-17T14:45:09.251Z,0.82
2023-01-17T14:47:41.540Z,0.76
2023-01-17T14:50:27.371Z,0.60
2023-01-17T14:53:29.999Z,0.67
2023-01-17T14:56:17.735Z,0.63
2023-01-17T14:58:46.585Z,0.51
2023-01-17T15:01:19.390Z,0.43
2023-01-17T15:03:51.537Z,0.54
2023-01-17T15:06:20.360Z,0.38
2023-01-17T15:08:48.298Z,0.39
2023-01-17T15:11:22.404Z,0.38
2023-01-17T15:13:51.669Z,0.30
2023-01-17T15:16:18.148Z,0.30
2023-01-17T15:18:44.770Z,0.38
2023-01-17T15:21:19.314Z,0.40
2023-01-17T15:23:55.400Z,0.46
2023-01-17T15:26:25.284Z,0.62
2023-01-17T15:28:55.330Z,0.74
2023-01-17T15:31:39.140Z,0.59
2023-01-17T15:34:08.116Z,0.51
2023-01-17T15:36:35.640Z,0.58
2023-01-17T15:39:08.555Z,0.57
2023-01-17T15:41:41.863Z,0.65
2023-01-17T15:44:23.898Z,0.72
2023-01-17T15:46:50.478Z,0.51
2023-01-17T15:49:22.851Z,0.51
2023-01-17T15:51:52.246Z,0.57
2023-01-17T15:54:27.085Z,0.67
2023-01-17T15:57:26.351Z,0.64
2023-01-17T16:00:06.948Z,0.67
2023-01-17T16:02:37.880Z,0.44
2023-01-17T16:05:30.939Z,0.38
2023-01-17T16:08:04.323Z,0.49
2023-01-17T16:10:36.399Z,0.38
2023-01-17T16:13:05.392Z,0.32
2023-01-17T16:15:36.061Z,0.47
2023-01-17T16:18:03.836Z,0.57
2023-01-17T16:20:44.833Z,0.59
2023-01-17T16:23:11.728Z,0.39
2023-01-17T16:25:38.449Z,0.30
2023-01-17T16:28:07.369Z,0.31
2023-01-17T16:30:33.985Z,0.49
2023-01-17T16:33:03.651Z,0.53
2023-01-17T16:35:35.508Z,0.60
2023-01-17T16:38:05.541Z,0.64
2023-01-17T16:40:38.915Z,0.68
2023-01-17T16:43:05.480Z,0.51
2023-01-17T16:45:40.328Z,0.22
2023-01-17T16:48:12.619Z,0.51
2023-01-17T16:50:53.355Z,0.31
2023-01-17T16:53:24.310Z,0.21
2023-01-17T16:55:53.855Z,0.38
2023-01-17T16:58:22.897Z,0.24
2023-01-17T17:00:49.457Z,0.39
2023-01-17T17:03:23.282Z,0.49
2023-01-17T17:05:58.372Z,0.41
2023-01-17T17:08:24.973Z,0.58
2023-01-17T17:10:51.966Z,0.65
2023-01-17T17:13:18.519Z,0.66
2023-01-17T17:15:47.483Z,0.70
2023-01-17T17:18:17.644Z,0.59
2023-01-17T17:20:45.083Z,0.29
2023-01-17T17:23:14.832Z,0.49
2023-01-17T17:25:43.652Z,0.65
2023-01-17T17:28:11.081Z,0.69
2023-01-17T17:30:37.596Z,0.60
2023-01-17T17:33:06.600Z,0.62
2023-01-17T17:35:38.257Z,0.70
2023-01-17T17:38:07.137Z,0.67
2023-01-17T17:40:35.578Z,0.66
2023-01-17T17:43:02.439Z,0.45
2023-01-17T17:45:28.970Z,0.46
2023-01-17T17:47:55.606Z,0.40
2023-01-17T17:50:22.135Z,0.34
2023-01-17T17:52:48.951Z,0.54
2023-01-17T17:55:20.450Z,0.63
2023-01-17T17:57:47.020Z,0.70
2023-01-17T18:00:16.615Z,0.71
2023-01-17T18:02:45.489Z,0.70
2023-01-17T18:05:12.022Z,0.72
2023-01-17T18:07:41.553Z,0.71
2023-01-17T18:10:08.648Z,0.74
2023-01-17T18:12:35.211Z,0.72
2023-01-17T18:15:04.527Z,0.74
2023-01-17T18:17:33.397Z,0.76
2023-01-17T18:20:07.507Z,0.76
2023-01-17T18:22:34.500Z,0.71
2023-01-17T18:25:01.085Z,0.71
2023-01-17T18:27:27.647Z,0.70
2023-01-17T18:29:59.201Z,0.74
2023-01-17T18:32:25.845Z,0.73
2023-01-17T18:34:54.961Z,0.77
2023-01-17T18:37:24.508Z,0.86
2023-01-17T18:39:56.078Z,0.89
2023-01-17T18:42:23.651Z,0.91
2023-01-17T18:44:50.174Z,0.93
2023-01-17T18:47:19.078Z,0.85
2023-01-17T18:49:45.635Z,0.91
2023-01-17T18:52:12.165Z,0.90
2023-01-17T18:54:41.364Z,0.90
2023-01-17T18:57:13.028Z,0.88
2023-01-17T18:59:39.564Z,0.86
2023-01-17T19:02:08.915Z,0.85
2023-01-17T19:04:37.782Z,0.87
2023-01-17T19:07:04.375Z,0.83
2023-01-17T19:09:32.348Z,0.80
2023-01-17T19:12:00.065Z,0.76
2023-01-17T19:14:31.184Z,0.62
2023-01-17T19:16:57.783Z,0.62
2023-01-17T19:19:26.614Z,0.42
2023-01-17T19:21:55.432Z,0.50
2023-01-17T19:24:24.944Z,0.60
2023-01-17T19:26:54.093Z,0.67
2023-01-17T19:29:23.918Z,0.69
2023-01-17T19:31:55.901Z,0.58
2023-01-17T19:34:22.925Z,0.55
2023-01-17T19:36:53.183Z,0.69
2023-01-17T19:39:25.347Z,0.74
2023-01-17T19:41:51.963Z,0.74
2023-01-17T19:44:20.758Z,0.75
2023-01-17T19:46:47.524Z,0.65
2023-01-17T19:49:16.326Z,0.66
2023-01-17T19:51:43.783Z,0.69
2023-01-17T19:54:15.179Z,0.69
2023-01-17T19:56:46.268Z,0.70
2023-01-17T19:59:15.424Z,0.57
2023-01-17T20:01:46.649Z,0.51
2023-01-17T20:04:18.045Z,0.65
2023-01-17T20:06:46.091Z,0.64
2023-01-17T20:09:15.609Z,0.52
2023-01-17T20:11:42.342Z,0.40
2023-01-17T20:14:13.443Z,0.53
2023-01-17T20:16:43.611Z,0.62
2023-01-17T20:19:15.406Z,0.60
2023-01-17T20:21:46.686Z,0.64
2023-01-17T20:24:14.300Z,0.49
2023-01-17T20:26:41.328Z,0.48
2023-01-17T20:29:14.282Z,0.58
2023-01-17T20:31:44.598Z,0.63
2023-01-17T20:34:13.498Z,0.59
2023-01-17T20:36:42.540Z,0.58
2023-01-17T20:39:15.943Z,0.55
2023-01-17T20:41:43.959Z,0.63
2023-01-17T20:44:15.668Z,0.43
2023-01-17T20:46:42.737Z,0.47
2023-01-17T20:49:17.104Z,0.54
2023-01-17T20:51:47.267Z,0.59
2023-01-17T20:54:18.515Z,0.65
2023-01-17T20:56:48.153Z,0.62
2023-01-17T20:59:19.756Z,0.64
2023-01-17T21:01:49.696Z,0.65
2023-01-17T21:04:17.996Z,0.66
2023-01-17T21:06:44.704Z,0.44
2023-01-17T21:09:17.232Z,0.36
2023-01-17T21:11:46.052Z,0.44
2023-01-17T21:14:12.616Z,0.57
2023-01-17T21:16:44.712Z,0.64
2023-01-17T21:19:14.367Z,0.69
2023-01-17T21:21:40.967Z,0.71
2023-01-17T21:24:09.964Z,0.77
2023-01-17T21:26:39.894Z,0.80
2023-01-17T21:29:07.175Z,0.79
2023-01-17T21:31:36.820Z,0.71
2023-01-17T21:34:05.923Z,0.79
2023-01-17T21:36:42.331Z,0.85
2023-01-17T21:39:19.820Z,0.86
2023-01-17T21:41:50.733Z,0.89
2023-01-17T21:44:25.970Z,0.87
2023-01-17T21:46:59.844Z,0.88
2023-01-17T21:49:31.203Z,0.91
2023-01-17T21:51:57.735Z,0.91
2023-01-17T21:54:49.145Z,0.94
2023-01-17T21:57:38.494Z,0.88
2023-01-17T22:00:10.479Z,0.83
2023-01-17T22:02:37.131Z,0.80
2023-01-17T22:05:03.880Z,0.86
2023-01-17T22:07:30.430Z,0.78
2023-01-17T22:09:59.339Z,0.69
2023-01-17T22:12:26.297Z,0.80
2023-01-17T22:14:53.550Z,0.92
2023-01-17T22:17:21.047Z,0.89
2023-01-17T22:19:50.072Z,0.88
2023-01-17T22:22:16.648Z,0.73
2023-01-17T22:24:43.238Z,0.53
2023-01-17T22:27:13.624Z,0.60
2023-01-17T22:29:40.271Z,0.65
2023-01-17T22:32:06.839Z,0.71
2023-01-17T22:34:33.405Z,0.65
2023-01-17T22:37:00.557Z,0.69
2023-01-17T22:39:31.899Z,0.50
2023-01-17T22:41:58.704Z,0.48
2023-01-17T22:44:25.312Z,0.49
2023-01-17T22:46:54.198Z,0.58
2023-01-17T22:49:23.419Z,0.66
2023-01-17T22:51:52.657Z,0.73
2023-01-17T22:54:21.512Z,0.77
2023-01-17T22:56:50.506Z,0.75
2023-01-17T22:59:17.093Z,0.56
2023-01-17T23:01:45.969Z,0.49
2023-01-17T23:04:14.510Z,0.49
2023-01-17T23:06:41.654Z,0.60
2023-01-17T23:09:10.683Z,0.72
2023-01-17T23:11:47.392Z,0.80
2023-01-17T23:14:21.044Z,0.83
2023-01-17T23:17:10.696Z,0.76
2023-01-17T23:19:44.761Z,0.81
2023-01-17T23:22:19.354Z,0.86
2023-01-17T23:24:54.381Z,0.89
2023-01-17T23:27:56.033Z,0.87
2023-01-17T23:30:37.330Z,0.85
2023-01-17T23:33:13.304Z,0.84
2023-01-17T23:35:44.257Z,0.88
2023-01-17T23:38:29.960Z,0.71
2023-01-17T23:41:23.718Z,0.85
2023-01-17T23:43:58.979Z,0.65
2023-01-17T23:46:26.910Z,0.72
2023-01-17T23:48:54.955Z,0.77
2023-01-17T23:51:26.239Z,0.71
2023-01-17T23:53:57.287Z,0.56
2023-01-17T23:56:26.180Z,0.53
2023-01-17T23:58:54.788Z,0.50
